Terminal Aerodrome Forecast
Issued by NWS Grand Forks, ND

Home | Current Version | Previous Version | Graphics & Text | Print | Product List | Glossary On
Versions: 1 2 3 4 5 6 7 8 9 10 11 12 13 14 15 16 17 18 19 20 21 22
000
FTUS43 KFGF 291200 AAA
TAFFAR
TAF AMD
KFAR 291212Z 2912/3012 17004KT 4SM BR OVC005
      TEMPO 2912/2914 3/4SM BR OVC003
     FM291500 23004KT P6SM BKN012
     FM291800 32005KT P6SM BKN025
     FM292300 35011KT P6SM VCTS BKN050CB
     FM300300 35008KT P6SM SCT050=

USA.gov is the U.S. government's official web portal to all federal, state and local government web resources and services.